메인 페이지
METAR-TAF:

METAR-TAF

공항 :

Homestead, 플로리다, 미국

위도: 25-29N, 경도: 080-23W, 고도: 2m

현재 날씨관측

예보는 14분 전, 21:56시(UTC)에 발표되었습니다.
서남서16kt
온도 31°C
습도 49%
기압 1009 hPa
시정: 16.1km
고도 5000ft 상공 구름 조금

METAR: KHST 312156Z AUTO 25016KT 10SM FEW050 31/19 A2981 RMK AO2 SLP098 T03080185

시각: 18:10 (22:10 UTC)

예보

예보는 3 시간 10분 전, 19:00시(UTC)에 발표되었습니다.
예보 대상 시간: 31일 19시부터 02일 01시까지 (UTC)
남남서12kt
시정 10km 이상
고도 3000ft 상공 구름 조금
고도 25000ft 상공 구름 많음
전환 중
01일 02시부터 01일 03시까지 (UTC)
서남서8kt
시정 10km 이상
고도 1500ft 상공 구름 많음
전환 중
01일 08시부터 01일 09시까지 (UTC)
10kt, 순간 최대 풍속 18kt
시정 10km 이상
고도 1200ft 상공 구름 많음
고도 2500ft 상공 흐림
시계 내 소나기
전환 중
01일 13시부터 01일 14시까지 (UTC)
서북서12kt, 순간 최대 풍속 18kt
시정 10km 이상
고도 4000ft 상공 구름 조금

TAF: KHST 311900Z 3119/0201 21012KT 9999 FEW030 BKN250 QNH2983INS BECMG 0102/0103 25008KT 9999 BKN015 QNH2977INS BECMG 0108/0109 28010G18KT 9999 VCSH BKN012 OVC025 QNH2975INS BECMG 0113/0114 30012G18KT 9999 NSW FEW040 QNH2980INS TX31/3119Z TN21/0111Z

4,000개 이상의 공항 관측 자료 및 예보 (METAR 및 TAF 보고).

지도상에서 검색 가능한 기상관측소가 노란 점과 빨간 점으로 표시되어 있습니다.

기상관측소 명을 보려면 표시 위로 마우스를 이동하세요.

날씨 관측과 예보를 보려면 클릭하세요.

지도 변경 : 확대하려면 엑스 표시가 있는 녹색 버튼, 축소하려면 빼기 표시가 있는 녹색 버튼, 다음 페이지의 지도를 보려면 녹색 화살표를 클릭하세요.


METAR-TAF: